sensor_id;sensor_type;location;lat;lon;timestamp;P1;durP1;ratioP1;P2;durP2;ratioP2
81908;SDS011;71372;43.514;1.512;2024-03-08T00:02:24;3.92;;;1.02;;
81908;SDS011;71372;43.514;1.512;2024-03-08T00:04:50;4.38;;;1.08;;
81908;SDS011;71372;43.514;1.512;2024-03-08T00:07:16;3.00;;;0.80;;
81908;SDS011;71372;43.514;1.512;2024-03-08T00:09:42;6.43;;;1.20;;
81908;SDS011;71372;43.514;1.512;2024-03-08T00:12:08;5.32;;;1.23;;
81908;SDS011;71372;43.514;1.512;2024-03-08T00:14:34;2.28;;;0.82;;
81908;SDS011;71372;43.514;1.512;2024-03-08T00:17:03;5.90;;;0.80;;
81908;SDS011;71372;43.514;1.512;2024-03-08T00:19:29;5.32;;;0.95;;
81908;SDS011;71372;43.514;1.512;2024-03-08T00:21:55;4.28;;;0.85;;
81908;SDS011;71372;43.514;1.512;2024-03-08T00:24:21;5.03;;;0.90;;
81908;SDS011;71372;43.514;1.512;2024-03-08T00:26:50;2.13;;;0.80;;
81908;SDS011;71372;43.514;1.512;2024-03-08T00:29:16;4.68;;;1.08;;
81908;SDS011;71372;43.514;1.512;2024-03-08T00:31:43;3.28;;;0.98;;
81908;SDS011;71372;43.514;1.512;2024-03-08T00:34:08;6.18;;;1.65;;
81908;SDS011;71372;43.514;1.512;2024-03-08T00:36:37;2.88;;;0.77;;
81908;SDS011;71372;43.514;1.512;2024-03-08T00:39:03;3.70;;;1.10;;
81908;SDS011;71372;43.514;1.512;2024-03-08T00:41:32;3.72;;;0.93;;
81908;SDS011;71372;43.514;1.512;2024-03-08T00:43:58;7.05;;;1.58;;
81908;SDS011;71372;43.514;1.512;2024-03-08T00:46:24;3.20;;;1.13;;
81908;SDS011;71372;43.514;1.512;2024-03-08T00:48:50;4.20;;;0.88;;
81908;SDS011;71372;43.514;1.512;2024-03-08T00:51:16;5.68;;;1.35;;
81908;SDS011;71372;43.514;1.512;2024-03-08T00:53:42;8.50;;;1.55;;
81908;SDS011;71372;43.514;1.512;2024-03-08T00:56:08;3.42;;;0.90;;
81908;SDS011;71372;43.514;1.512;2024-03-08T00:58:37;3.42;;;0.80;;
81908;SDS011;71372;43.514;1.512;2024-03-08T01:01:03;1.35;;;0.77;;
81908;SDS011;71372;43.514;1.512;2024-03-08T01:03:30;4.55;;;1.15;;
81908;SDS011;71372;43.514;1.512;2024-03-08T01:06:00;5.97;;;0.98;;
81908;SDS011;71372;43.514;1.512;2024-03-08T01:08:29;4.78;;;1.10;;
81908;SDS011;71372;43.514;1.512;2024-03-08T01:10:55;3.30;;;0.93;;
81908;SDS011;71372;43.514;1.512;2024-03-08T01:13:21;4.30;;;1.02;;
81908;SDS011;71372;43.514;1.512;2024-03-08T01:15:47;6.93;;;1.60;;
81908;SDS011;71372;43.514;1.512;2024-03-08T01:18:13;4.50;;;0.95;;
81908;SDS011;71372;43.514;1.512;2024-03-08T01:20:39;4.30;;;1.05;;
81908;SDS011;71372;43.514;1.512;2024-03-08T01:23:06;3.42;;;0.90;;
81908;SDS011;71372;43.514;1.512;2024-03-08T01:25:33;4.90;;;1.05;;
81908;SDS011;71372;43.514;1.512;2024-03-08T01:27:59;4.97;;;1.20;;
81908;SDS011;71372;43.514;1.512;2024-03-08T01:30:25;1.60;;;0.70;;
81908;SDS011;71372;43.514;1.512;2024-03-08T01:32:51;3.60;;;1.38;;
81908;SDS011;71372;43.514;1.512;2024-03-08T01:35:17;3.47;;;0.90;;
81908;SDS011;71372;43.514;1.512;2024-03-08T01:37:44;5.70;;;1.65;;
81908;SDS011;71372;43.514;1.512;2024-03-08T01:40:10;4.20;;;1.58;;
81908;SDS011;71372;43.514;1.512;2024-03-08T01:42:36;5.20;;;1.10;;
81908;SDS011;71372;43.514;1.512;2024-03-08T01:45:06;2.70;;;0.80;;
81908;SDS011;71372;43.514;1.512;2024-03-08T01:47:32;3.60;;;0.90;;
81908;SDS011;71372;43.514;1.512;2024-03-08T01:49:59;4.35;;;0.82;;
81908;SDS011;71372;43.514;1.512;2024-03-08T01:52:28;5.55;;;1.10;;
81908;SDS011;71372;43.514;1.512;2024-03-08T01:54:58;3.92;;;0.90;;
81908;SDS011;71372;43.514;1.512;2024-03-08T01:57:29;4.50;;;0.95;;
81908;SDS011;71372;43.514;1.512;2024-03-08T01:59:57;1.80;;;0.70;;
81908;SDS011;71372;43.514;1.512;2024-03-08T02:02:23;5.57;;;1.00;;
81908;SDS011;71372;43.514;1.512;2024-03-08T02:04:49;4.15;;;0.95;;
81908;SDS011;71372;43.514;1.512;2024-03-08T02:07:18;3.00;;;0.82;;
81908;SDS011;71372;43.514;1.512;2024-03-08T02:09:44;4.55;;;1.00;;
81908;SDS011;71372;43.514;1.512;2024-03-08T02:12:10;4.38;;;0.93;;
81908;SDS011;71372;43.514;1.512;2024-03-08T02:14:36;5.18;;;0.75;;
81908;SDS011;71372;43.514;1.512;2024-03-08T02:17:02;6.13;;;1.10;;
81908;SDS011;71372;43.514;1.512;2024-03-08T02:19:28;1.52;;;0.75;;
81908;SDS011;71372;43.514;1.512;2024-03-08T02:21:54;5.93;;;1.00;;
81908;SDS011;71372;43.514;1.512;2024-03-08T02:24:21;3.25;;;0.93;;
81908;SDS011;71372;43.514;1.512;2024-03-08T02:26:49;2.83;;;0.90;;
81908;SDS011;71372;43.514;1.512;2024-03-08T02:29:15;2.85;;;0.70;;
81908;SDS011;71372;43.514;1.512;2024-03-08T02:31:41;5.22;;;0.80;;
81908;SDS011;71372;43.514;1.512;2024-03-08T02:34:06;4.95;;;1.00;;
81908;SDS011;71372;43.514;1.512;2024-03-08T02:36:32;3.63;;;1.10;;
81908;SDS011;71372;43.514;1.512;2024-03-08T02:39:03;3.53;;;0.70;;
81908;SDS011;71372;43.514;1.512;2024-03-08T02:41:31;3.15;;;0.88;;
81908;SDS011;71372;43.514;1.512;2024-03-08T02:43:56;2.63;;;0.65;;
81908;SDS011;71372;43.514;1.512;2024-03-08T02:46:22;6.20;;;1.00;;
81908;SDS011;71372;43.514;1.512;2024-03-08T02:48:48;4.85;;;0.90;;
81908;SDS011;71372;43.514;1.512;2024-03-08T02:51:14;4.20;;;0.70;;
81908;SDS011;71372;43.514;1.512;2024-03-08T02:53:41;4.90;;;0.80;;
81908;SDS011;71372;43.514;1.512;2024-03-08T02:56:08;4.60;;;0.90;;
81908;SDS011;71372;43.514;1.512;2024-03-08T02:58:38;4.85;;;0.70;;
81908;SDS011;71372;43.514;1.512;2024-03-08T03:01:04;3.95;;;0.95;;
81908;SDS011;71372;43.514;1.512;2024-03-08T03:03:30;5.57;;;0.70;;
81908;SDS011;71372;43.514;1.512;2024-03-08T03:05:56;3.95;;;0.88;;
81908;SDS011;71372;43.514;1.512;2024-03-08T03:08:22;4.32;;;0.75;;
81908;SDS011;71372;43.514;1.512;2024-03-08T03:10:48;4.45;;;0.70;;
81908;SDS011;71372;43.514;1.512;2024-03-08T03:13:14;3.95;;;0.77;;
81908;SDS011;71372;43.514;1.512;2024-03-08T03:15:40;3.45;;;0.85;;
81908;SDS011;71372;43.514;1.512;2024-03-08T03:18:08;4.57;;;0.90;;
81908;SDS011;71372;43.514;1.512;2024-03-08T03:20:35;1.98;;;0.80;;
81908;SDS011;71372;43.514;1.512;2024-03-08T03:23:06;4.88;;;0.93;;
81908;SDS011;71372;43.514;1.512;2024-03-08T03:25:34;5.85;;;1.20;;
81908;SDS011;71372;43.514;1.512;2024-03-08T03:28:01;2.78;;;0.70;;
81908;SDS011;71372;43.514;1.512;2024-03-08T03:30:27;4.47;;;0.77;;
81908;SDS011;71372;43.514;1.512;2024-03-08T03:33:01;1.90;;;0.90;;
81908;SDS011;71372;43.514;1.512;2024-03-08T03:35:32;2.35;;;0.70;;
81908;SDS011;71372;43.514;1.512;2024-03-08T03:37:58;0.65;;;0.50;;
81908;SDS011;71372;43.514;1.512;2024-03-08T03:40:34;5.78;;;1.27;;
81908;SDS011;71372;43.514;1.512;2024-03-08T03:43:02;3.97;;;0.63;;
81908;SDS011;71372;43.514;1.512;2024-03-08T03:45:28;3.85;;;0.85;;
81908;SDS011;71372;43.514;1.512;2024-03-08T03:47:55;3.85;;;0.50;;
81908;SDS011;71372;43.514;1.512;2024-03-08T03:50:21;3.00;;;0.80;;
81908;SDS011;71372;43.514;1.512;2024-03-08T03:52:47;1.80;;;0.80;;
81908;SDS011;71372;43.514;1.512;2024-03-08T03:55:14;3.83;;;0.60;;
81908;SDS011;71372;43.514;1.512;2024-03-08T03:57:40;2.55;;;0.60;;
81908;SDS011;71372;43.514;1.512;2024-03-08T04:00:07;4.35;;;0.70;;
81908;SDS011;71372;43.514;1.512;2024-03-08T04:02:39;2.17;;;0.70;;
81908;SDS011;71372;43.514;1.512;2024-03-08T04:05:05;1.85;;;0.73;;
81908;SDS011;71372;43.514;1.512;2024-03-08T04:07:32;3.03;;;0.75;;
81908;SDS011;71372;43.514;1.512;2024-03-08T04:09:58;4.57;;;0.80;;
81908;SDS011;71372;43.514;1.512;2024-03-08T04:12:24;1.70;;;0.75;;
81908;SDS011;71372;43.514;1.512;2024-03-08T04:14:50;5.55;;;0.75;;
81908;SDS011;71372;43.514;1.512;2024-03-08T04:17:16;3.42;;;0.95;;
81908;SDS011;71372;43.514;1.512;2024-03-08T04:19:43;3.15;;;0.80;;
81908;SDS011;71372;43.514;1.512;2024-03-08T04:22:09;2.53;;;0.63;;
81908;SDS011;71372;43.514;1.512;2024-03-08T04:24:35;3.75;;;0.77;;
81908;SDS011;71372;43.514;1.512;2024-03-08T04:27:01;2.70;;;0.80;;
81908;SDS011;71372;43.514;1.512;2024-03-08T04:29:27;3.38;;;0.55;;
81908;SDS011;71372;43.514;1.512;2024-03-08T04:31:53;3.72;;;0.90;;
81908;SDS011;71372;43.514;1.512;2024-03-08T04:34:20;3.47;;;0.77;;
81908;SDS011;71372;43.514;1.512;2024-03-08T04:36:47;2.47;;;0.70;;
81908;SDS011;71372;43.514;1.512;2024-03-08T04:39:16;6.18;;;0.90;;
81908;SDS011;71372;43.514;1.512;2024-03-08T04:41:44;4.32;;;0.80;;
81908;SDS011;71372;43.514;1.512;2024-03-08T04:44:10;4.00;;;0.77;;
81908;SDS011;71372;43.514;1.512;2024-03-08T04:46:38;5.05;;;1.08;;
81908;SDS011;71372;43.514;1.512;2024-03-08T04:49:04;2.63;;;0.60;;
81908;SDS011;71372;43.514;1.512;2024-03-08T04:51:30;3.60;;;0.82;;
81908;SDS011;71372;43.514;1.512;2024-03-08T04:53:56;4.10;;;0.75;;
81908;SDS011;71372;43.514;1.512;2024-03-08T04:56:22;4.90;;;1.00;;
81908;SDS011;71372;43.514;1.512;2024-03-08T04:58:48;4.45;;;1.10;;
81908;SDS011;71372;43.514;1.512;2024-03-08T05:01:15;7.20;;;0.95;;
81908;SDS011;71372;43.514;1.512;2024-03-08T05:03:41;3.63;;;0.85;;
81908;SDS011;71372;43.514;1.512;2024-03-08T05:06:07;6.70;;;1.05;;
81908;SDS011;71372;43.514;1.512;2024-03-08T05:08:33;3.65;;;0.80;;
81908;SDS011;71372;43.514;1.512;2024-03-08T05:11:00;6.00;;;1.55;;
81908;SDS011;71372;43.514;1.512;2024-03-08T05:13:31;11.57;;;1.98;;
81908;SDS011;71372;43.514;1.512;2024-03-08T05:15:57;9.18;;;1.55;;
81908;SDS011;71372;43.514;1.512;2024-03-08T05:18:26;2.50;;;0.70;;
81908;SDS011;71372;43.514;1.512;2024-03-08T05:20:54;6.70;;;1.20;;
81908;SDS011;71372;43.514;1.512;2024-03-08T05:23:20;5.63;;;0.65;;
81908;SDS011;71372;43.514;1.512;2024-03-08T05:25:47;3.85;;;0.60;;
81908;SDS011;71372;43.514;1.512;2024-03-08T05:28:13;7.80;;;1.67;;
81908;SDS011;71372;43.514;1.512;2024-03-08T05:30:39;5.55;;;0.88;;
81908;SDS011;71372;43.514;1.512;2024-03-08T05:33:05;5.53;;;1.02;;
81908;SDS011;71372;43.514;1.512;2024-03-08T05:35:31;7.65;;;0.85;;
81908;SDS011;71372;43.514;1.512;2024-03-08T05:37:58;3.35;;;0.85;;
81908;SDS011;71372;43.514;1.512;2024-03-08T05:40:24;7.30;;;0.90;;
81908;SDS011;71372;43.514;1.512;2024-03-08T05:42:49;4.18;;;0.80;;
81908;SDS011;71372;43.514;1.512;2024-03-08T05:45:15;3.30;;;1.10;;
81908;SDS011;71372;43.514;1.512;2024-03-08T05:47:41;4.40;;;1.30;;
81908;SDS011;71372;43.514;1.512;2024-03-08T05:50:08;4.35;;;0.90;;
81908;SDS011;71372;43.514;1.512;2024-03-08T05:52:36;7.10;;;1.20;;
81908;SDS011;71372;43.514;1.512;2024-03-08T05:55:04;4.38;;;0.90;;
81908;SDS011;71372;43.514;1.512;2024-03-08T05:57:33;7.40;;;1.30;;
81908;SDS011;71372;43.514;1.512;2024-03-08T05:59:59;7.22;;;1.08;;
81908;SDS011;71372;43.514;1.512;2024-03-08T06:02:24;5.75;;;1.30;;
81908;SDS011;71372;43.514;1.512;2024-03-08T06:04:50;8.70;;;1.25;;
81908;SDS011;71372;43.514;1.512;2024-03-08T06:07:16;6.18;;;0.75;;
81908;SDS011;71372;43.514;1.512;2024-03-08T06:09:43;4.88;;;1.33;;
81908;SDS011;71372;43.514;1.512;2024-03-08T06:12:11;4.80;;;0.77;;
81908;SDS011;71372;43.514;1.512;2024-03-08T06:14:37;8.07;;;2.47;;
81908;SDS011;71372;43.514;1.512;2024-03-08T06:17:03;7.22;;;1.00;;
81908;SDS011;71372;43.514;1.512;2024-03-08T06:19:32;4.90;;;0.90;;
81908;SDS011;71372;43.514;1.512;2024-03-08T06:21:59;5.80;;;1.73;;
81908;SDS011;71372;43.514;1.512;2024-03-08T06:24:28;5.13;;;0.90;;
81908;SDS011;71372;43.514;1.512;2024-03-08T06:26:54;4.78;;;1.10;;
81908;SDS011;71372;43.514;1.512;2024-03-08T06:29:20;4.90;;;1.02;;
81908;SDS011;71372;43.514;1.512;2024-03-08T06:31:46;3.90;;;1.10;;
81908;SDS011;71372;43.514;1.512;2024-03-08T06:34:11;3.92;;;0.82;;
81908;SDS011;71372;43.514;1.512;2024-03-08T06:36:37;3.35;;;0.80;;
81908;SDS011;71372;43.514;1.512;2024-03-08T06:39:03;2.88;;;0.50;;
81908;SDS011;71372;43.514;1.512;2024-03-08T06:41:35;4.00;;;1.00;;
81908;SDS011;71372;43.514;1.512;2024-03-08T06:44:02;4.10;;;0.93;;
81908;SDS011;71372;43.514;1.512;2024-03-08T06:46:27;3.17;;;0.70;;
81908;SDS011;71372;43.514;1.512;2024-03-08T06:48:53;5.35;;;1.02;;
81908;SDS011;71372;43.514;1.512;2024-03-08T06:51:19;3.25;;;0.82;;
81908;SDS011;71372;43.514;1.512;2024-03-08T06:53:45;3.55;;;0.70;;
81908;SDS011;71372;43.514;1.512;2024-03-08T06:56:11;5.47;;;1.20;;
81908;SDS011;71372;43.514;1.512;2024-03-08T06:58:37;1.88;;;0.98;;
81908;SDS011;71372;43.514;1.512;2024-03-08T07:01:03;6.70;;;0.90;;
81908;SDS011;71372;43.514;1.512;2024-03-08T07:03:33;5.80;;;0.93;;
81908;SDS011;71372;43.514;1.512;2024-03-08T07:05:59;2.83;;;0.63;;
81908;SDS011;71372;43.514;1.512;2024-03-08T07:08:25;7.18;;;1.50;;
81908;SDS011;71372;43.514;1.512;2024-03-08T07:10:53;3.95;;;0.77;;
81908;SDS011;71372;43.514;1.512;2024-03-08T07:13:19;2.40;;;0.60;;
81908;SDS011;71372;43.514;1.512;2024-03-08T07:15:45;4.57;;;0.80;;
81908;SDS011;71372;43.514;1.512;2024-03-08T07:18:11;6.00;;;0.88;;
81908;SDS011;71372;43.514;1.512;2024-03-08T07:20:40;2.60;;;0.60;;
81908;SDS011;71372;43.514;1.512;2024-03-08T07:23:07;2.55;;;0.98;;
81908;SDS011;71372;43.514;1.512;2024-03-08T07:25:34;2.92;;;1.00;;
81908;SDS011;71372;43.514;1.512;2024-03-08T07:28:00;0.90;;;0.50;;
81908;SDS011;71372;43.514;1.512;2024-03-08T07:30:26;5.00;;;0.73;;
81908;SDS011;71372;43.514;1.512;2024-03-08T07:33:11;2.95;;;0.70;;
81908;SDS011;71372;43.514;1.512;2024-03-08T07:35:37;4.53;;;0.90;;
81908;SDS011;71372;43.514;1.512;2024-03-08T07:38:04;1.88;;;0.63;;
81908;SDS011;71372;43.514;1.512;2024-03-08T07:40:31;3.15;;;1.23;;
81908;SDS011;71372;43.514;1.512;2024-03-08T07:43:00;4.45;;;0.80;;
81908;SDS011;71372;43.514;1.512;2024-03-08T07:45:26;1.83;;;0.80;;
81908;SDS011;71372;43.514;1.512;2024-03-08T07:47:52;3.95;;;1.00;;
81908;SDS011;71372;43.514;1.512;2024-03-08T07:50:19;2.55;;;0.88;;
81908;SDS011;71372;43.514;1.512;2024-03-08T07:52:45;2.70;;;0.50;;
81908;SDS011;71372;43.514;1.512;2024-03-08T07:55:11;1.48;;;0.60;;
81908;SDS011;71372;43.514;1.512;2024-03-08T07:57:36;2.05;;;0.50;;
81908;SDS011;71372;43.514;1.512;2024-03-08T08:00:05;2.35;;;0.77;;
81908;SDS011;71372;43.514;1.512;2024-03-08T08:02:34;2.70;;;0.52;;
81908;SDS011;71372;43.514;1.512;2024-03-08T08:05:01;3.25;;;0.70;;
81908;SDS011;71372;43.514;1.512;2024-03-08T08:07:27;2.10;;;0.95;;
81908;SDS011;71372;43.514;1.512;2024-03-08T08:09:53;4.10;;;0.98;;
81908;SDS011;71372;43.514;1.512;2024-03-08T08:12:19;2.47;;;0.50;;
81908;SDS011;71372;43.514;1.512;2024-03-08T08:14:46;2.03;;;0.60;;
81908;SDS011;71372;43.514;1.512;2024-03-08T08:17:12;2.83;;;0.90;;
81908;SDS011;71372;43.514;1.512;2024-03-08T08:19:40;0.57;;;0.40;;
81908;SDS011;71372;43.514;1.512;2024-03-08T08:22:06;2.55;;;0.50;;
81908;SDS011;71372;43.514;1.512;2024-03-08T08:24:34;3.60;;;1.08;;
81908;SDS011;71372;43.514;1.512;2024-03-08T08:29:28;1.75;;;0.57;;
81908;SDS011;71372;43.514;1.512;2024-03-08T08:31:54;3.28;;;0.70;;
81908;SDS011;71372;43.514;1.512;2024-03-08T08:34:20;3.35;;;0.70;;
81908;SDS011;71372;43.514;1.512;2024-03-08T08:36:49;2.97;;;0.90;;
81908;SDS011;71372;43.514;1.512;2024-03-08T08:39:15;1.08;;;0.45;;
81908;SDS011;71372;43.514;1.512;2024-03-08T08:41:42;2.50;;;0.60;;
81908;SDS011;71372;43.514;1.512;2024-03-08T08:44:08;2.28;;;0.50;;
81908;SDS011;71372;43.514;1.512;2024-03-08T08:46:36;2.70;;;0.50;;
81908;SDS011;71372;43.514;1.512;2024-03-08T08:49:03;1.25;;;0.47;;
81908;SDS011;71372;43.514;1.512;2024-03-08T08:51:30;2.60;;;0.43;;
81908;SDS011;71372;43.514;1.512;2024-03-08T08:53:59;2.65;;;0.60;;
81908;SDS011;71372;43.514;1.512;2024-03-08T08:56:25;2.38;;;0.80;;
81908;SDS011;71372;43.514;1.512;2024-03-08T08:58:51;1.85;;;0.60;;
81908;SDS011;71372;43.514;1.512;2024-03-08T09:01:21;4.18;;;0.70;;
81908;SDS011;71372;43.514;1.512;2024-03-08T09:03:46;2.08;;;0.55;;
81908;SDS011;71372;43.514;1.512;2024-03-08T09:06:12;1.08;;;0.60;;
81908;SDS011;71372;43.514;1.512;2024-03-08T09:08:39;4.95;;;0.80;;
81908;SDS011;71372;43.514;1.512;2024-03-08T09:11:05;2.75;;;1.20;;
81908;SDS011;71372;43.514;1.512;2024-03-08T09:13:31;4.55;;;1.10;;
81908;SDS011;71372;43.514;1.512;2024-03-08T09:15:59;3.83;;;1.13;;
81908;SDS011;71372;43.514;1.512;2024-03-08T09:18:25;5.13;;;1.60;;
81908;SDS011;71372;43.514;1.512;2024-03-08T09:20:51;3.40;;;1.40;;
81908;SDS011;71372;43.514;1.512;2024-03-08T09:23:19;7.78;;;2.30;;
81908;SDS011;71372;43.514;1.512;2024-03-08T09:25:45;2.92;;;1.63;;
81908;SDS011;71372;43.514;1.512;2024-03-08T09:28:12;3.22;;;1.50;;
81908;SDS011;71372;43.514;1.512;2024-03-08T09:30:38;3.60;;;1.50;;
81908;SDS011;71372;43.514;1.512;2024-03-08T09:33:05;6.40;;;2.20;;
81908;SDS011;71372;43.514;1.512;2024-03-08T09:35:31;3.03;;;1.45;;
81908;SDS011;71372;43.514;1.512;2024-03-08T09:37:58;2.92;;;1.35;;
81908;SDS011;71372;43.514;1.512;2024-03-08T09:40:24;4.72;;;1.60;;
81908;SDS011;71372;43.514;1.512;2024-03-08T09:42:51;3.35;;;1.60;;
81908;SDS011;71372;43.514;1.512;2024-03-08T09:45:19;4.75;;;1.67;;
81908;SDS011;71372;43.514;1.512;2024-03-08T09:47:47;5.40;;;1.90;;
81908;SDS011;71372;43.514;1.512;2024-03-08T09:50:14;3.38;;;1.60;;
81908;SDS011;71372;43.514;1.512;2024-03-08T09:52:43;6.13;;;2.30;;
81908;SDS011;71372;43.514;1.512;2024-03-08T09:55:13;4.85;;;1.52;;
81908;SDS011;71372;43.514;1.512;2024-03-08T09:57:42;3.15;;;1.60;;
81908;SDS011;71372;43.514;1.512;2024-03-08T10:00:29;3.75;;;1.63;;
81908;SDS011;71372;43.514;1.512;2024-03-08T10:02:59;2.83;;;2.03;;
81908;SDS011;71372;43.514;1.512;2024-03-08T10:05:26;3.53;;;1.73;;
81908;SDS011;71372;43.514;1.512;2024-03-08T10:07:52;4.82;;;2.20;;
81908;SDS011;71372;43.514;1.512;2024-03-08T10:10:18;3.95;;;1.85;;
81908;SDS011;71372;43.514;1.512;2024-03-08T10:12:45;3.35;;;1.60;;
81908;SDS011;71372;43.514;1.512;2024-03-08T10:15:13;4.20;;;1.50;;
81908;SDS011;71372;43.514;1.512;2024-03-08T10:17:42;3.58;;;1.75;;
81908;SDS011;71372;43.514;1.512;2024-03-08T10:20:15;4.30;;;2.10;;
81908;SDS011;71372;43.514;1.512;2024-03-08T10:22:42;2.45;;;1.02;;
81908;SDS011;71372;43.514;1.512;2024-03-08T10:25:12;1.98;;;0.88;;
81908;SDS011;71372;43.514;1.512;2024-03-08T10:27:39;1.98;;;0.90;;
81908;SDS011;71372;43.514;1.512;2024-03-08T10:30:13;2.60;;;1.40;;
81908;SDS011;71372;43.514;1.512;2024-03-08T10:32:41;4.60;;;1.98;;
81908;SDS011;71372;43.514;1.512;2024-03-08T10:35:07;3.30;;;1.63;;
81908;SDS011;71372;43.514;1.512;2024-03-08T10:37:36;1.83;;;1.10;;
81908;SDS011;71372;43.514;1.512;2024-03-08T10:40:04;2.38;;;0.90;;
81908;SDS011;71372;43.514;1.512;2024-03-08T10:42:44;2.17;;;1.00;;
81908;SDS011;71372;43.514;1.512;2024-03-08T10:45:33;1.40;;;0.73;;
81908;SDS011;71372;43.514;1.512;2024-03-08T10:50:36;3.05;;;0.82;;
81908;SDS011;71372;43.514;1.512;2024-03-08T10:53:03;2.45;;;0.70;;
81908;SDS011;71372;43.514;1.512;2024-03-08T10:55:32;2.05;;;1.20;;
81908;SDS011;71372;43.514;1.512;2024-03-08T10:57:59;2.35;;;1.20;;
81908;SDS011;71372;43.514;1.512;2024-03-08T11:00:26;3.90;;;1.42;;
81908;SDS011;71372;43.514;1.512;2024-03-08T11:02:53;2.50;;;1.00;;
81908;SDS011;71372;43.514;1.512;2024-03-08T11:08:19;2.20;;;0.82;;
81908;SDS011;71372;43.514;1.512;2024-03-08T11:10:49;3.67;;;0.70;;
81908;SDS011;71372;43.514;1.512;2024-03-08T11:13:32;1.58;;;0.60;;
81908;SDS011;71372;43.514;1.512;2024-03-08T11:16:10;0.45;;;0.45;;
81908;SDS011;71372;43.514;1.512;2024-03-08T11:18:36;0.93;;;0.60;;
81908;SDS011;71372;43.514;1.512;2024-03-08T11:21:03;1.00;;;0.60;;
81908;SDS011;71372;43.514;1.512;2024-03-08T11:23:37;0.70;;;0.38;;
81908;SDS011;71372;43.514;1.512;2024-03-08T11:26:20;0.90;;;0.50;;
81908;SDS011;71372;43.514;1.512;2024-03-08T11:28:49;0.90;;;0.50;;
81908;SDS011;71372;43.514;1.512;2024-03-08T11:31:22;0.85;;;0.40;;
81908;SDS011;71372;43.514;1.512;2024-03-08T11:33:49;0.63;;;0.32;;
81908;SDS011;71372;43.514;1.512;2024-03-08T11:36:22;0.82;;;0.32;;
81908;SDS011;71372;43.514;1.512;2024-03-08T11:38:50;4.05;;;0.47;;
81908;SDS011;71372;43.514;1.512;2024-03-08T11:41:18;0.40;;;0.30;;
81908;SDS011;71372;43.514;1.512;2024-03-08T11:43:46;1.20;;;0.50;;
81908;SDS011;71372;43.514;1.512;2024-03-08T11:46:15;0.85;;;0.50;;
81908;SDS011;71372;43.514;1.512;2024-03-08T11:48:43;0.77;;;0.60;;
81908;SDS011;71372;43.514;1.512;2024-03-08T11:51:12;1.35;;;0.47;;
81908;SDS011;71372;43.514;1.512;2024-03-08T11:53:40;1.08;;;0.60;;
81908;SDS011;71372;43.514;1.512;2024-03-08T11:56:11;1.92;;;0.60;;
81908;SDS011;71372;43.514;1.512;2024-03-08T11:58:38;1.92;;;0.65;;
81908;SDS011;71372;43.514;1.512;2024-03-08T12:01:06;0.80;;;0.40;;
81908;SDS011;71372;43.514;1.512;2024-03-08T12:03:34;1.52;;;0.50;;
81908;SDS011;71372;43.514;1.512;2024-03-08T12:06:01;1.50;;;0.50;;
81908;SDS011;71372;43.514;1.512;2024-03-08T12:08:32;1.05;;;0.60;;
81908;SDS011;71372;43.514;1.512;2024-03-08T12:10:58;1.13;;;0.40;;
81908;SDS011;71372;43.514;1.512;2024-03-08T12:13:27;0.55;;;0.50;;
81908;SDS011;71372;43.514;1.512;2024-03-08T12:16:05;1.58;;;0.60;;
81908;SDS011;71372;43.514;1.512;2024-03-08T12:18:35;0.50;;;0.50;;
81908;SDS011;71372;43.514;1.512;2024-03-08T12:21:04;1.70;;;0.50;;
81908;SDS011;71372;43.514;1.512;2024-03-08T12:24:23;1.02;;;0.40;;
81908;SDS011;71372;43.514;1.512;2024-03-08T12:26:45;1.02;;;0.40;;
81908;SDS011;71372;43.514;1.512;2024-03-08T12:29:14;0.43;;;0.30;;
81908;SDS011;71372;43.514;1.512;2024-03-08T12:31:42;1.42;;;0.40;;
81908;SDS011;71372;43.514;1.512;2024-03-08T12:34:08;0.45;;;0.32;;
81908;SDS011;71372;43.514;1.512;2024-03-08T12:36:35;1.00;;;0.40;;
81908;SDS011;71372;43.514;1.512;2024-03-08T12:39:01;1.17;;;0.80;;
81908;SDS011;71372;43.514;1.512;2024-03-08T12:41:29;2.92;;;0.70;;
81908;SDS011;71372;43.514;1.512;2024-03-08T12:43:55;1.45;;;0.50;;
81908;SDS011;71372;43.514;1.512;2024-03-08T12:46:21;1.30;;;0.55;;
81908;SDS011;71372;43.514;1.512;2024-03-08T12:48:47;1.17;;;0.40;;
81908;SDS011;71372;43.514;1.512;2024-03-08T12:51:14;1.35;;;0.40;;
81908;SDS011;71372;43.514;1.512;2024-03-08T12:53:41;0.30;;;0.30;;
81908;SDS011;71372;43.514;1.512;2024-03-08T12:56:16;0.95;;;0.30;;
81908;SDS011;71372;43.514;1.512;2024-03-08T12:58:54;0.43;;;0.20;;
81908;SDS011;71372;43.514;1.512;2024-03-08T13:01:20;1.45;;;0.30;;
81908;SDS011;71372;43.514;1.512;2024-03-08T13:03:46;0.30;;;0.25;;
81908;SDS011;71372;43.514;1.512;2024-03-08T13:06:12;0.30;;;0.30;;
81908;SDS011;71372;43.514;1.512;2024-03-08T13:08:38;0.65;;;0.40;;
81908;SDS011;71372;43.514;1.512;2024-03-08T13:11:07;0.20;;;0.20;;
81908;SDS011;71372;43.514;1.512;2024-03-08T13:13:34;0.80;;;0.30;;
81908;SDS011;71372;43.514;1.512;2024-03-08T13:16:02;1.35;;;0.47;;
81908;SDS011;71372;43.514;1.512;2024-03-08T13:18:28;0.70;;;0.40;;
81908;SDS011;71372;43.514;1.512;2024-03-08T13:20:54;0.30;;;0.22;;
81908;SDS011;71372;43.514;1.512;2024-03-08T13:23:23;0.82;;;0.30;;
81908;SDS011;71372;43.514;1.512;2024-03-08T13:25:49;1.20;;;0.40;;
81908;SDS011;71372;43.514;1.512;2024-03-08T13:28:15;0.82;;;0.30;;
81908;SDS011;71372;43.514;1.512;2024-03-08T13:30:42;1.92;;;0.30;;
81908;SDS011;71372;43.514;1.512;2024-03-08T13:33:09;0.63;;;0.30;;
81908;SDS011;71372;43.514;1.512;2024-03-08T13:35:35;0.40;;;0.30;;
81908;SDS011;71372;43.514;1.512;2024-03-08T13:38:03;0.30;;;0.20;;
81908;SDS011;71372;43.514;1.512;2024-03-08T13:40:29;0.65;;;0.20;;
81908;SDS011;71372;43.514;1.512;2024-03-08T13:42:56;0.20;;;0.20;;
81908;SDS011;71372;43.514;1.512;2024-03-08T13:45:22;0.85;;;0.25;;
81908;SDS011;71372;43.514;1.512;2024-03-08T13:47:49;0.60;;;0.30;;
81908;SDS011;71372;43.514;1.512;2024-03-08T13:50:19;0.30;;;0.25;;
81908;SDS011;71372;43.514;1.512;2024-03-08T13:52:47;0.40;;;0.30;;
81908;SDS011;71372;43.514;1.512;2024-03-08T13:55:20;0.85;;;0.38;;
81908;SDS011;71372;43.514;1.512;2024-03-08T14:00:16;0.30;;;0.20;;
81908;SDS011;71372;43.514;1.512;2024-03-08T14:02:43;1.17;;;0.38;;
81908;SDS011;71372;43.514;1.512;2024-03-08T14:05:09;0.60;;;0.38;;
81908;SDS011;71372;43.514;1.512;2024-03-08T14:07:37;0.77;;;0.40;;
81908;SDS011;71372;43.514;1.512;2024-03-08T14:10:03;1.45;;;0.30;;
81908;SDS011;71372;43.514;1.512;2024-03-08T14:12:32;0.25;;;0.25;;
81908;SDS011;71372;43.514;1.512;2024-03-08T14:14:58;0.95;;;0.40;;
81908;SDS011;71372;43.514;1.512;2024-03-08T14:17:27;0.80;;;0.40;;
81908;SDS011;71372;43.514;1.512;2024-03-08T14:19:56;0.40;;;0.30;;
81908;SDS011;71372;43.514;1.512;2024-03-08T14:22:22;0.98;;;0.35;;
81908;SDS011;71372;43.514;1.512;2024-03-08T14:24:49;1.08;;;0.30;;
81908;SDS011;71372;43.514;1.512;2024-03-08T14:27:15;0.65;;;0.35;;
81908;SDS011;71372;43.514;1.512;2024-03-08T14:29:44;0.38;;;0.30;;
81908;SDS011;71372;43.514;1.512;2024-03-08T14:32:10;0.95;;;0.30;;
81908;SDS011;71372;43.514;1.512;2024-03-08T14:34:38;0.45;;;0.20;;
81908;SDS011;71372;43.514;1.512;2024-03-08T14:37:04;0.98;;;0.38;;
81908;SDS011;71372;43.514;1.512;2024-03-08T14:39:33;0.50;;;0.30;;
81908;SDS011;71372;43.514;1.512;2024-03-08T14:42:00;1.08;;;0.40;;
81908;SDS011;71372;43.514;1.512;2024-03-08T14:44:27;0.57;;;0.30;;
81908;SDS011;71372;43.514;1.512;2024-03-08T14:46:55;0.55;;;0.32;;
81908;SDS011;71372;43.514;1.512;2024-03-08T14:49:22;1.27;;;0.38;;
81908;SDS011;71372;43.514;1.512;2024-03-08T14:51:48;0.32;;;0.30;;
81908;SDS011;71372;43.514;1.512;2024-03-08T14:54:14;2.83;;;0.40;;
81908;SDS011;71372;43.514;1.512;2024-03-08T14:56:40;0.30;;;0.20;;
81908;SDS011;71372;43.514;1.512;2024-03-08T14:59:07;0.50;;;0.30;;
81908;SDS011;71372;43.514;1.512;2024-03-08T15:01:34;0.38;;;0.30;;